»·PEaware :: JBU102 KSNA-KLAS

JBU102 :: KSNA-KLAS

FLIGHT INFORMATION

Flight Status: Arrived
Operator:
JetBlue Airways
More flights by this operator :: More flights under this callsign
Pilot: Rohan O. (9904)
Aircraft: BOEING 737-300
(B733)
More flights by this aircraft type
Origin: KSNA John Wayne-Orange Co
United States
Destination: KLAS McCarran Intl
United States
More flights between these airports :: More routes between these airports
Route: +FINZZ1 MISEN KEPEC4
File this flight plan on PilotEdge
Remarks: PBN / A1B3B4B5D3D4 DOF / 170811 REG / N155AW OPR / JBU RMK / TCAS SIMBRIEF
Altitude:
(Current/Filed)
27,000ft
Speed:
(Current/Filed)
440kts
Departed: 11-Aug-17 09:35 AM
Arrived: 11-Aug-17 10:23 AM
Distance/Time
Traveled:
197nm/0:48
Distance/Time
To Go:
Arrived

Flight Plot

Page will automatically refresh every two minutes.

Flight plan parsing failed; only flown route is shown


Map Options




Map Legend


Flown Route
Filed Route
Departure Airport
Arrival Airport
Navaid (VOR, NDB)
Fix

Horizontal Profiles

Position Reports

Time Latitude Longitude Heading Altitude Ground
Speed
11-Aug-17 09:14 33.681501 -117.860970 116 63ft 0kts
11-Aug-17 09:15 33.681501 -117.860970 116 63ft 0kts
11-Aug-17 09:16 33.681501 -117.860970 116 63ft 0kts
11-Aug-17 09:17 33.681501 -117.860970 116 63ft 0kts
11-Aug-17 09:18 33.681501 -117.860970 116 63ft 0kts
11-Aug-17 09:19 33.681501 -117.860970 116 63ft 0kts
11-Aug-17 09:20 33.681501 -117.860970 116 63ft 0kts
11-Aug-17 09:21 33.681501 -117.860970 116 63ft 0kts
11-Aug-17 09:22 33.681501 -117.860970 116 63ft 0kts
11-Aug-17 09:23 33.681501 -117.860970 116 63ft 0kts
11-Aug-17 09:24 33.681501 -117.860970 116 63ft 0kts
11-Aug-17 09:25 33.681501 -117.860970 116 63ft 0kts
11-Aug-17 09:26 33.681501 -117.860970 116 63ft 0kts
11-Aug-17 09:27 33.681501 -117.860970 116 63ft 0kts
11-Aug-17 09:28 33.681501 -117.860970 116 63ft 0kts
11-Aug-17 09:29 33.681501 -117.860970 116 63ft 0kts
11-Aug-17 09:30 33.681518 -117.861011 117 63ft 0kts
11-Aug-17 09:31 33.681762 -117.861597 114 63ft 0kts
11-Aug-17 09:32 33.681795 -117.861683 114 63ft 0kts
11-Aug-17 09:33 33.681795 -117.861682 114 63ft 0kts
11-Aug-17 09:34 33.681794 -117.861682 114 63ft 0kts
11-Aug-17 09:35 33.680940 -117.862159 207 63ft 11kts
11-Aug-17 09:36 33.681226 -117.864337 296 63ft 2kts
11-Aug-17 09:37 33.681244 -117.865307 210 63ft 11kts
11-Aug-17 09:38 33.661758 -117.877860 210 305ft 181kts
11-Aug-17 09:39 33.610371 -117.895398 180 2901ft 225kts
11-Aug-17 09:40 33.552198 -117.919931 224 5463ft 272kts
11-Aug-17 09:41 33.517305 -117.995332 281 8046ft 288kts
11-Aug-17 09:42 33.574294 -118.042979 351 10645ft 310kts
11-Aug-17 09:43 33.649660 -118.036571 18 13119ft 329kts
11-Aug-17 09:44 33.718119 -118.013801 16 15343ft 341kts
11-Aug-17 09:45 33.790898 -117.987387 16 17487ft 353kts
11-Aug-17 09:46 33.871537 -117.957540 17 19552ft 365kts
11-Aug-17 09:47 33.947140 -117.907808 37 21119ft 383kts
11-Aug-17 09:48 34.015517 -117.844727 36 22693ft 393kts
11-Aug-17 09:49 34.093537 -117.771214 46 24395ft 403kts
11-Aug-17 09:50 34.146066 -117.693788 50 25786ft 409kts
11-Aug-17 09:51 34.214312 -117.592283 50 27013ft 423kts
11-Aug-17 09:52 34.283426 -117.489399 50 26995ft 428kts
11-Aug-17 09:53 34.353376 -117.384721 49 26966ft 458kts
11-Aug-17 09:54 34.424521 -117.277916 50 27009ft 461kts
11-Aug-17 09:55 34.502131 -117.161335 50 27001ft 461kts
11-Aug-17 09:56 34.580820 -117.044583 49 27000ft 461kts
11-Aug-17 09:57 34.660198 -116.928966 49 27004ft 461kts
11-Aug-17 09:58 34.740132 -116.812378 49 26846ft 459kts
11-Aug-17 09:59 34.817962 -116.697984 49 26276ft 455kts
11-Aug-17 10:00 34.907846 -116.591710 37 25610ft 483kts
11-Aug-17 10:01 35.010665 -116.492969 38 24583ft 483kts
11-Aug-17 10:02 35.107272 -116.398246 43 23989ft 479kts
11-Aug-17 10:03 35.190264 -116.293884 46 23882ft 482kts
11-Aug-17 10:04 35.278912 -116.182563 46 22331ft 443kts
11-Aug-17 10:05 35.360084 -116.080445 46 20635ft 407kts
11-Aug-17 10:06 35.436378 -115.984138 47 18926ft 394kts
11-Aug-17 10:07 35.508486 -115.892869 47 16919ft 378kts
11-Aug-17 10:08 35.578944 -115.803446 47 14860ft 365kts
11-Aug-17 10:09 35.646851 -115.717103 46 13119ft 342kts
11-Aug-17 10:10 35.707438 -115.639268 47 13021ft 318kts
11-Aug-17 10:11 35.773786 -115.574512 5 13008ft 319kts
11-Aug-17 10:12 35.861688 -115.569568 2 13079ft 320kts
11-Aug-17 10:13 35.948700 -115.563810 12 13048ft 320kts
11-Aug-17 10:15 35.995015 -115.489304 70 12132ft 284kts
11-Aug-17 10:16 36.021848 -115.404181 69 11245ft 282kts
11-Aug-17 10:17 36.027428 -115.326175 97 10825ft 271kts
11-Aug-17 10:18 36.021398 -115.243687 97 9912ft 251kts
11-Aug-17 10:19 36.015687 -115.163586 96 9030ft 246kts
11-Aug-17 10:20 36.010464 -115.086560 96 8220ft 228kts
11-Aug-17 10:21 36.006014 -115.013169 95 7068ft 218kts
11-Aug-17 10:22 36.013478 -114.944778 35 5876ft 211kts
11-Aug-17 10:23 36.065393 -114.959756 309 4592ft 207kts
11-Aug-17 10:24 36.074531 -115.020002 270 3797ft 188kts
11-Aug-17 10:25 36.073816 -115.072061 266 2942ft 153kts
11-Aug-17 10:26 36.073689 -115.118012 266 2324ft 154kts
11-Aug-17 10:27 36.073643 -115.151564 269 2148ft 38kts
11-Aug-17 10:28 36.076973 -115.158086 329 2148ft 12kts
11-Aug-17 10:29 36.078035 -115.155047 89 2148ft 19kts
11-Aug-17 10:30 36.077955 -115.150011 95 2148ft 17kts
11-Aug-17 10:31 36.078629 -115.147586 38 2148ft 5kts
11-Aug-17 10:32 36.081347 -115.148673 338 2148ft 10kts
11-Aug-17 10:33 36.082042 -115.148265 62 2148ft 2kts
11-Aug-17 10:33 36.082067 -115.148206 62 2148ft 0kts

Navigation Log

Ident Type
Flight plan parsing failed, navigation log unavailable